Terminal Aerodrome Forecast
Issued by NWS Jacksonville, FL

Home | Current Version | Previous Version | Text Only | Print | Product List | Glossary On
Versions: 1 2 3 4 5 6 7 8 9 10 11 12 13 14 15 16 17 18 19 20 21 22 23 24 25 26 27 28 29 30 31 32 33
000
FTUS42 KJAX 030338 AAA
TAFJAX
TAF AMD
KJAX 030338Z 0304/0324 15008KT P6SM BKN020
     FM031200 19010KT P6SM VCSH SCT015 BKN030
     FM031600 23010KT 4SM SHRA VCTS BKN025CB PROB30 0317/0322
      VRB15G25KT 2SM TSRA BKN015CB=

USA.gov is the U.S. government's official web portal to all federal, state and local government web resources and services.